sensor_id;sensor_type;location;lat;lon;timestamp;temperature;humidity
3053;DHT22;1536;51.098;6.414;2023-04-24T00:00:12;12.80;99.90
3053;DHT22;1536;51.098;6.414;2023-04-24T00:02:40;12.80;99.90
3053;DHT22;1536;51.098;6.414;2023-04-24T00:05:14;12.70;99.90
3053;DHT22;1536;51.098;6.414;2023-04-24T00:07:41;12.70;99.90
3053;DHT22;1536;51.098;6.414;2023-04-24T00:10:08;12.70;99.90
3053;DHT22;1536;51.098;6.414;2023-04-24T00:12:35;12.70;99.90
3053;DHT22;1536;51.098;6.414;2023-04-24T00:15:02;12.70;99.90
3053;DHT22;1536;51.098;6.414;2023-04-24T00:17:29;12.60;99.90
3053;DHT22;1536;51.098;6.414;2023-04-24T00:19:56;12.60;99.90
3053;DHT22;1536;51.098;6.414;2023-04-24T00:22:26;12.60;99.90
3053;DHT22;1536;51.098;6.414;2023-04-24T00:24:53;12.60;99.90
3053;DHT22;1536;51.098;6.414;2023-04-24T00:27:20;12.60;99.90
3053;DHT22;1536;51.098;6.414;2023-04-24T00:29:47;12.60;99.90
3053;DHT22;1536;51.098;6.414;2023-04-24T00:32:14;12.50;99.90
3053;DHT22;1536;51.098;6.414;2023-04-24T00:34:41;12.50;99.90
3053;DHT22;1536;51.098;6.414;2023-04-24T00:37:08;12.50;99.90
3053;DHT22;1536;51.098;6.414;2023-04-24T00:39:36;12.50;99.90
3053;DHT22;1536;51.098;6.414;2023-04-24T00:42:03;12.40;99.90
3053;DHT22;1536;51.098;6.414;2023-04-24T00:44:32;12.40;99.90
3053;DHT22;1536;51.098;6.414;2023-04-24T00:46:59;12.40;99.90
3053;DHT22;1536;51.098;6.414;2023-04-24T00:49:26;12.30;99.90
3053;DHT22;1536;51.098;6.414;2023-04-24T00:51:53;12.30;99.90
3053;DHT22;1536;51.098;6.414;2023-04-24T00:54:20;12.30;99.90
3053;DHT22;1536;51.098;6.414;2023-04-24T00:56:48;12.20;99.90
3053;DHT22;1536;51.098;6.414;2023-04-24T00:59:17;12.20;99.90
3053;DHT22;1536;51.098;6.414;2023-04-24T01:01:44;12.10;99.90
3053;DHT22;1536;51.098;6.414;2023-04-24T01:04:11;12.10;99.90
3053;DHT22;1536;51.098;6.414;2023-04-24T01:06:39;12.10;99.90
3053;DHT22;1536;51.098;6.414;2023-04-24T01:09:07;12.00;99.90
3053;DHT22;1536;51.098;6.414;2023-04-24T01:11:34;12.00;99.90
3053;DHT22;1536;51.098;6.414;2023-04-24T01:14:02;11.90;99.90
3053;DHT22;1536;51.098;6.414;2023-04-24T01:16:29;11.90;99.90
3053;DHT22;1536;51.098;6.414;2023-04-24T01:18:56;11.90;99.90
3053;DHT22;1536;51.098;6.414;2023-04-24T01:21:23;11.90;99.90
3053;DHT22;1536;51.098;6.414;2023-04-24T01:23:55;11.90;99.90
3053;DHT22;1536;51.098;6.414;2023-04-24T01:26:22;11.90;99.90
3053;DHT22;1536;51.098;6.414;2023-04-24T01:28:51;11.90;99.90
3053;DHT22;1536;51.098;6.414;2023-04-24T01:31:18;11.90;99.90
3053;DHT22;1536;51.098;6.414;2023-04-24T01:33:45;11.80;99.90
3053;DHT22;1536;51.098;6.414;2023-04-24T01:36:13;11.80;99.90
3053;DHT22;1536;51.098;6.414;2023-04-24T01:38:40;11.70;99.90
3053;DHT22;1536;51.098;6.414;2023-04-24T01:41:08;11.80;99.90
3053;DHT22;1536;51.098;6.414;2023-04-24T01:43:35;11.80;99.90
3053;DHT22;1536;51.098;6.414;2023-04-24T01:46:02;11.70;99.90
3053;DHT22;1536;51.098;6.414;2023-04-24T01:48:29;11.80;99.90
3053;DHT22;1536;51.098;6.414;2023-04-24T01:50:56;11.70;99.90
3053;DHT22;1536;51.098;6.414;2023-04-24T01:53:23;11.80;99.90
3053;DHT22;1536;51.098;6.414;2023-04-24T01:55:50;11.70;99.90
3053;DHT22;1536;51.098;6.414;2023-04-24T01:58:18;11.70;99.90
3053;DHT22;1536;51.098;6.414;2023-04-24T02:00:45;11.70;99.90
3053;DHT22;1536;51.098;6.414;2023-04-24T02:03:12;11.70;99.90
3053;DHT22;1536;51.098;6.414;2023-04-24T02:05:38;11.70;99.90
3053;DHT22;1536;51.098;6.414;2023-04-24T02:08:05;11.70;99.90
3053;DHT22;1536;51.098;6.414;2023-04-24T02:10:32;11.70;99.90
3053;DHT22;1536;51.098;6.414;2023-04-24T02:12:59;11.70;99.90
3053;DHT22;1536;51.098;6.414;2023-04-24T02:15:27;11.70;99.90
3053;DHT22;1536;51.098;6.414;2023-04-24T02:17:54;11.70;99.90
3053;DHT22;1536;51.098;6.414;2023-04-24T02:20:20;11.60;99.90
3053;DHT22;1536;51.098;6.414;2023-04-24T02:22:47;11.60;99.90
3053;DHT22;1536;51.098;6.414;2023-04-24T02:25:14;11.60;99.90
3053;DHT22;1536;51.098;6.414;2023-04-24T02:27:40;11.60;99.90
3053;DHT22;1536;51.098;6.414;2023-04-24T02:30:08;11.70;99.90
3053;DHT22;1536;51.098;6.414;2023-04-24T02:32:36;11.70;99.90
3053;DHT22;1536;51.098;6.414;2023-04-24T02:35:05;11.70;99.90
3053;DHT22;1536;51.098;6.414;2023-04-24T02:37:31;11.70;99.90
3053;DHT22;1536;51.098;6.414;2023-04-24T02:39:58;11.70;99.90
3053;DHT22;1536;51.098;6.414;2023-04-24T02:42:25;11.70;99.90
3053;DHT22;1536;51.098;6.414;2023-04-24T02:44:52;11.70;99.90
3053;DHT22;1536;51.098;6.414;2023-04-24T02:47:18;11.70;99.90
3053;DHT22;1536;51.098;6.414;2023-04-24T02:49:46;11.70;99.90
3053;DHT22;1536;51.098;6.414;2023-04-24T02:52:13;11.80;99.90
3053;DHT22;1536;51.098;6.414;2023-04-24T02:54:40;11.70;99.90
3053;DHT22;1536;51.098;6.414;2023-04-24T02:57:06;11.70;99.90
3053;DHT22;1536;51.098;6.414;2023-04-24T02:59:33;11.70;99.90
3053;DHT22;1536;51.098;6.414;2023-04-24T03:02:00;11.70;99.90
3053;DHT22;1536;51.098;6.414;2023-04-24T03:04:27;11.70;99.90
3053;DHT22;1536;51.098;6.414;2023-04-24T03:06:55;11.70;99.90
3053;DHT22;1536;51.098;6.414;2023-04-24T03:09:22;11.70;99.90
3053;DHT22;1536;51.098;6.414;2023-04-24T03:11:49;11.70;99.90
3053;DHT22;1536;51.098;6.414;2023-04-24T03:14:16;11.70;99.90
3053;DHT22;1536;51.098;6.414;2023-04-24T03:16:42;11.70;99.90
3053;DHT22;1536;51.098;6.414;2023-04-24T03:19:10;11.70;99.90
3053;DHT22;1536;51.098;6.414;2023-04-24T03:21:36;11.70;99.90
3053;DHT22;1536;51.098;6.414;2023-04-24T03:24:07;11.70;99.90
3053;DHT22;1536;51.098;6.414;2023-04-24T03:26:34;11.70;99.90
3053;DHT22;1536;51.098;6.414;2023-04-24T03:29:02;11.70;99.90
3053;DHT22;1536;51.098;6.414;2023-04-24T03:31:29;11.70;99.90
3053;DHT22;1536;51.098;6.414;2023-04-24T03:33:55;11.70;99.90
3053;DHT22;1536;51.098;6.414;2023-04-24T03:36:22;11.80;99.90
3053;DHT22;1536;51.098;6.414;2023-04-24T03:38:49;11.80;99.90
3053;DHT22;1536;51.098;6.414;2023-04-24T03:41:17;11.80;99.90
3053;DHT22;1536;51.098;6.414;2023-04-24T03:43:44;11.80;99.90
3053;DHT22;1536;51.098;6.414;2023-04-24T03:46:10;11.80;99.90
3053;DHT22;1536;51.098;6.414;2023-04-24T03:48:37;11.70;99.90
3053;DHT22;1536;51.098;6.414;2023-04-24T03:51:04;11.80;99.90
3053;DHT22;1536;51.098;6.414;2023-04-24T03:53:31;11.70;99.90
3053;DHT22;1536;51.098;6.414;2023-04-24T03:55:57;11.70;99.90
3053;DHT22;1536;51.098;6.414;2023-04-24T03:58:26;11.70;99.90
3053;DHT22;1536;51.098;6.414;2023-04-24T04:00:52;11.70;99.90
3053;DHT22;1536;51.098;6.414;2023-04-24T04:03:19;11.70;99.90
3053;DHT22;1536;51.098;6.414;2023-04-24T04:05:46;11.70;99.90
3053;DHT22;1536;51.098;6.414;2023-04-24T04:08:12;11.70;99.90
3053;DHT22;1536;51.098;6.414;2023-04-24T04:10:39;11.70;99.90
3053;DHT22;1536;51.098;6.414;2023-04-24T04:13:06;11.70;99.90
3053;DHT22;1536;51.098;6.414;2023-04-24T04:15:34;11.70;99.90
3053;DHT22;1536;51.098;6.414;2023-04-24T04:18:01;11.70;99.90
3053;DHT22;1536;51.098;6.414;2023-04-24T04:20:27;11.60;99.90
3053;DHT22;1536;51.098;6.414;2023-04-24T04:22:54;11.60;99.90
3053;DHT22;1536;51.098;6.414;2023-04-24T04:25:21;11.60;99.90
3053;DHT22;1536;51.098;6.414;2023-04-24T04:27:48;11.70;99.90
3053;DHT22;1536;51.098;6.414;2023-04-24T04:30:16;11.60;99.90
3053;DHT22;1536;51.098;6.414;2023-04-24T04:32:44;11.60;99.90
3053;DHT22;1536;51.098;6.414;2023-04-24T04:35:11;11.60;99.90
3053;DHT22;1536;51.098;6.414;2023-04-24T04:37:38;11.60;99.90
3053;DHT22;1536;51.098;6.414;2023-04-24T04:40:07;11.60;99.90
3053;DHT22;1536;51.098;6.414;2023-04-24T04:42:37;11.60;99.90
3053;DHT22;1536;51.098;6.414;2023-04-24T04:45:06;11.50;99.90
3053;DHT22;1536;51.098;6.414;2023-04-24T04:47:34;11.50;99.90
3053;DHT22;1536;51.098;6.414;2023-04-24T04:50:03;11.50;99.90
3053;DHT22;1536;51.098;6.414;2023-04-24T04:52:31;11.40;99.90
3053;DHT22;1536;51.098;6.414;2023-04-24T04:54:57;11.40;99.90
3053;DHT22;1536;51.098;6.414;2023-04-24T04:57:24;11.40;99.90
3053;DHT22;1536;51.098;6.414;2023-04-24T04:59:51;11.30;99.90
3053;DHT22;1536;51.098;6.414;2023-04-24T05:02:18;11.30;99.90
3053;DHT22;1536;51.098;6.414;2023-04-24T05:04:45;11.20;99.90
3053;DHT22;1536;51.098;6.414;2023-04-24T05:07:13;11.20;99.90
3053;DHT22;1536;51.098;6.414;2023-04-24T05:09:39;11.20;99.90
3053;DHT22;1536;51.098;6.414;2023-04-24T05:12:06;11.20;99.90
3053;DHT22;1536;51.098;6.414;2023-04-24T05:14:33;11.10;99.90
3053;DHT22;1536;51.098;6.414;2023-04-24T05:17:00;11.10;99.90
3053;DHT22;1536;51.098;6.414;2023-04-24T05:19:28;11.10;99.90
3053;DHT22;1536;51.098;6.414;2023-04-24T05:21:54;11.10;99.90
3053;DHT22;1536;51.098;6.414;2023-04-24T05:24:22;11.10;99.90
3053;DHT22;1536;51.098;6.414;2023-04-24T05:26:49;11.00;99.90
3053;DHT22;1536;51.098;6.414;2023-04-24T05:29:16;11.10;99.90
3053;DHT22;1536;51.098;6.414;2023-04-24T05:31:44;11.10;99.90
3053;DHT22;1536;51.098;6.414;2023-04-24T05:34:11;11.10;99.90
3053;DHT22;1536;51.098;6.414;2023-04-24T05:36:38;11.10;99.90
3053;DHT22;1536;51.098;6.414;2023-04-24T05:39:04;11.10;99.90
3053;DHT22;1536;51.098;6.414;2023-04-24T05:41:32;11.10;99.90
3053;DHT22;1536;51.098;6.414;2023-04-24T05:43:59;11.10;99.90
3053;DHT22;1536;51.098;6.414;2023-04-24T05:46:26;11.10;99.90
3053;DHT22;1536;51.098;6.414;2023-04-24T05:48:53;11.10;99.90
3053;DHT22;1536;51.098;6.414;2023-04-24T05:51:19;11.10;99.90
3053;DHT22;1536;51.098;6.414;2023-04-24T05:53:46;11.10;99.90
3053;DHT22;1536;51.098;6.414;2023-04-24T05:56:13;11.10;99.90
3053;DHT22;1536;51.098;6.414;2023-04-24T05:58:41;11.10;99.90
3053;DHT22;1536;51.098;6.414;2023-04-24T06:01:08;11.10;99.90
3053;DHT22;1536;51.098;6.414;2023-04-24T06:03:34;11.10;99.90
3053;DHT22;1536;51.098;6.414;2023-04-24T06:06:01;11.10;99.90
3053;DHT22;1536;51.098;6.414;2023-04-24T06:08:28;11.10;99.90
3053;DHT22;1536;51.098;6.414;2023-04-24T06:10:55;11.10;99.90
3053;DHT22;1536;51.098;6.414;2023-04-24T06:13:21;11.10;99.90
3053;DHT22;1536;51.098;6.414;2023-04-24T06:15:49;11.00;99.90
3053;DHT22;1536;51.098;6.414;2023-04-24T06:18:16;11.00;99.90
3053;DHT22;1536;51.098;6.414;2023-04-24T06:20:43;11.00;99.90
3053;DHT22;1536;51.098;6.414;2023-04-24T06:23:10;10.90;99.90
3053;DHT22;1536;51.098;6.414;2023-04-24T06:25:37;10.90;99.90
3053;DHT22;1536;51.098;6.414;2023-04-24T06:28:04;10.90;99.90
3053;DHT22;1536;51.098;6.414;2023-04-24T06:30:31;10.80;99.90
3053;DHT22;1536;51.098;6.414;2023-04-24T06:32:59;10.80;99.90
3053;DHT22;1536;51.098;6.414;2023-04-24T06:35:25;10.80;99.90
3053;DHT22;1536;51.098;6.414;2023-04-24T06:37:52;10.80;99.90
3053;DHT22;1536;51.098;6.414;2023-04-24T06:40:19;10.80;99.90
3053;DHT22;1536;51.098;6.414;2023-04-24T06:42:46;10.80;99.90
3053;DHT22;1536;51.098;6.414;2023-04-24T06:45:12;10.80;99.90
3053;DHT22;1536;51.098;6.414;2023-04-24T06:47:39;10.80;99.90
3053;DHT22;1536;51.098;6.414;2023-04-24T06:50:08;10.70;99.90
3053;DHT22;1536;51.098;6.414;2023-04-24T06:52:35;10.70;99.90
3053;DHT22;1536;51.098;6.414;2023-04-24T06:55:02;10.70;99.90
3053;DHT22;1536;51.098;6.414;2023-04-24T06:57:29;10.70;99.90
3053;DHT22;1536;51.098;6.414;2023-04-24T06:59:56;10.70;99.90
3053;DHT22;1536;51.098;6.414;2023-04-24T08:17:54;8.50;99.90
3053;DHT22;1536;51.098;6.414;2023-04-24T08:20:21;9.70;99.90
3053;DHT22;1536;51.098;6.414;2023-04-24T08:22:48;9.80;99.90
3053;DHT22;1536;51.098;6.414;2023-04-24T08:25:15;9.80;99.90
3053;DHT22;1536;51.098;6.414;2023-04-24T08:27:41;9.80;99.90
3053;DHT22;1536;51.098;6.414;2023-04-24T08:30:09;9.90;99.90
3053;DHT22;1536;51.098;6.414;2023-04-24T08:32:36;9.90;99.90
3053;DHT22;1536;51.098;6.414;2023-04-24T08:35:05;9.90;99.90
3053;DHT22;1536;51.098;6.414;2023-04-24T08:37:34;9.90;99.90
3053;DHT22;1536;51.098;6.414;2023-04-24T08:40:01;9.90;99.90
3053;DHT22;1536;51.098;6.414;2023-04-24T08:42:33;10.00;99.90
3053;DHT22;1536;51.098;6.414;2023-04-24T08:45:01;9.90;99.90
3053;DHT22;1536;51.098;6.414;2023-04-24T08:47:29;10.00;99.90
3053;DHT22;1536;51.098;6.414;2023-04-24T08:49:56;10.00;99.90
3053;DHT22;1536;51.098;6.414;2023-04-24T08:52:26;10.00;99.90
3053;DHT22;1536;51.098;6.414;2023-04-24T08:54:53;10.00;99.90
3053;DHT22;1536;51.098;6.414;2023-04-24T08:57:21;10.10;99.90
3053;DHT22;1536;51.098;6.414;2023-04-24T08:59:49;10.10;99.90
3053;DHT22;1536;51.098;6.414;2023-04-24T09:02:16;10.10;99.90
3053;DHT22;1536;51.098;6.414;2023-04-24T09:04:43;10.10;99.90
3053;DHT22;1536;51.098;6.414;2023-04-24T09:07:12;10.20;99.90
3053;DHT22;1536;51.098;6.414;2023-04-24T09:09:42;10.20;99.90
3053;DHT22;1536;51.098;6.414;2023-04-24T09:12:09;10.20;99.90
3053;DHT22;1536;51.098;6.414;2023-04-24T09:14:36;10.30;99.90
3053;DHT22;1536;51.098;6.414;2023-04-24T09:17:04;10.20;99.90
3053;DHT22;1536;51.098;6.414;2023-04-24T09:19:32;10.30;99.90
3053;DHT22;1536;51.098;6.414;2023-04-24T09:21:58;10.40;99.90
3053;DHT22;1536;51.098;6.414;2023-04-24T09:24:25;10.40;99.90
3053;DHT22;1536;51.098;6.414;2023-04-24T09:26:58;10.50;99.90
3053;DHT22;1536;51.098;6.414;2023-04-24T09:29:27;10.60;99.90
3053;DHT22;1536;51.098;6.414;2023-04-24T09:31:54;10.60;99.90
3053;DHT22;1536;51.098;6.414;2023-04-24T09:34:22;10.60;99.90
3053;DHT22;1536;51.098;6.414;2023-04-24T09:36:50;10.70;99.90
3053;DHT22;1536;51.098;6.414;2023-04-24T09:39:17;10.80;99.90
3053;DHT22;1536;51.098;6.414;2023-04-24T09:41:46;10.90;99.90
3053;DHT22;1536;51.098;6.414;2023-04-24T09:44:16;10.90;99.90
3053;DHT22;1536;51.098;6.414;2023-04-24T09:46:44;11.00;99.90
3053;DHT22;1536;51.098;6.414;2023-04-24T09:49:13;11.00;99.90
3053;DHT22;1536;51.098;6.414;2023-04-24T09:51:41;11.10;99.90
3053;DHT22;1536;51.098;6.414;2023-04-24T09:54:14;11.20;99.90
3053;DHT22;1536;51.098;6.414;2023-04-24T09:56:43;11.30;99.90
3053;DHT22;1536;51.098;6.414;2023-04-24T09:59:10;11.40;99.90
3053;DHT22;1536;51.098;6.414;2023-04-24T10:01:38;11.50;99.90
3053;DHT22;1536;51.098;6.414;2023-04-24T10:04:15;11.50;99.90
3053;DHT22;1536;51.098;6.414;2023-04-24T10:06:43;11.60;99.90
3053;DHT22;1536;51.098;6.414;2023-04-24T10:09:09;11.70;99.90
3053;DHT22;1536;51.098;6.414;2023-04-24T10:11:37;11.60;99.90
3053;DHT22;1536;51.098;6.414;2023-04-24T10:14:09;11.60;99.90
3053;DHT22;1536;51.098;6.414;2023-04-24T10:16:38;11.60;99.90
3053;DHT22;1536;51.098;6.414;2023-04-24T10:19:06;11.60;99.90
3053;DHT22;1536;51.098;6.414;2023-04-24T10:21:34;11.60;99.90
3053;DHT22;1536;51.098;6.414;2023-04-24T10:24:01;11.50;99.90
3053;DHT22;1536;51.098;6.414;2023-04-24T10:26:30;11.50;99.90
3053;DHT22;1536;51.098;6.414;2023-04-24T10:28:58;11.40;99.90
3053;DHT22;1536;51.098;6.414;2023-04-24T10:31:25;11.40;99.90
3053;DHT22;1536;51.098;6.414;2023-04-24T10:33:54;11.30;99.90
3053;DHT22;1536;51.098;6.414;2023-04-24T10:36:22;11.20;99.90
3053;DHT22;1536;51.098;6.414;2023-04-24T10:38:53;11.20;99.90
3053;DHT22;1536;51.098;6.414;2023-04-24T10:41:21;11.10;99.90
3053;DHT22;1536;51.098;6.414;2023-04-24T10:43:49;11.10;99.90
3053;DHT22;1536;51.098;6.414;2023-04-24T10:46:30;11.00;99.90
3053;DHT22;1536;51.098;6.414;2023-04-24T10:48:58;11.00;99.90
3053;DHT22;1536;51.098;6.414;2023-04-24T10:51:44;11.10;99.90
3053;DHT22;1536;51.098;6.414;2023-04-24T10:54:22;11.20;99.90
3053;DHT22;1536;51.098;6.414;2023-04-24T10:56:50;11.40;99.90
3053;DHT22;1536;51.098;6.414;2023-04-24T10:59:24;11.60;99.90
3053;DHT22;1536;51.098;6.414;2023-04-24T11:01:53;11.70;99.90
3053;DHT22;1536;51.098;6.414;2023-04-24T11:04:31;11.90;99.90
3053;DHT22;1536;51.098;6.414;2023-04-24T11:06:58;12.00;99.90
3053;DHT22;1536;51.098;6.414;2023-04-24T11:09:26;12.10;99.90
3053;DHT22;1536;51.098;6.414;2023-04-24T11:12:03;12.30;99.90
3053;DHT22;1536;51.098;6.414;2023-04-24T11:15:01;12.30;99.90
3053;DHT22;1536;51.098;6.414;2023-04-24T11:17:32;12.30;99.90
3053;DHT22;1536;51.098;6.414;2023-04-24T11:20:04;12.50;99.90
3053;DHT22;1536;51.098;6.414;2023-04-24T11:22:34;12.70;99.90
3053;DHT22;1536;51.098;6.414;2023-04-24T11:25:01;12.80;99.90
3053;DHT22;1536;51.098;6.414;2023-04-24T11:27:30;12.80;99.90
3053;DHT22;1536;51.098;6.414;2023-04-24T11:30:00;12.80;99.90
3053;DHT22;1536;51.098;6.414;2023-04-24T11:32:28;12.70;99.90
3053;DHT22;1536;51.098;6.414;2023-04-24T11:34:57;12.60;99.90
3053;DHT22;1536;51.098;6.414;2023-04-24T11:37:27;12.60;99.90
3053;DHT22;1536;51.098;6.414;2023-04-24T11:39:55;12.50;99.90
3053;DHT22;1536;51.098;6.414;2023-04-24T11:42:22;12.50;99.90
3053;DHT22;1536;51.098;6.414;2023-04-24T11:44:49;12.40;99.90
3053;DHT22;1536;51.098;6.414;2023-04-24T11:47:16;12.40;99.90
3053;DHT22;1536;51.098;6.414;2023-04-24T11:49:42;12.30;99.90
3053;DHT22;1536;51.098;6.414;2023-04-24T11:52:09;12.30;99.90
3053;DHT22;1536;51.098;6.414;2023-04-24T11:54:38;12.30;99.90
3053;DHT22;1536;51.098;6.414;2023-04-24T11:57:12;12.30;99.90
3053;DHT22;1536;51.098;6.414;2023-04-24T11:59:39;12.30;99.90
3053;DHT22;1536;51.098;6.414;2023-04-24T12:02:06;12.40;99.90
3053;DHT22;1536;51.098;6.414;2023-04-24T12:04:40;12.40;99.90
3053;DHT22;1536;51.098;6.414;2023-04-24T12:07:07;12.50;99.90
3053;DHT22;1536;51.098;6.414;2023-04-24T12:09:43;12.50;99.90
3053;DHT22;1536;51.098;6.414;2023-04-24T12:12:11;12.60;99.90
3053;DHT22;1536;51.098;6.414;2023-04-24T12:14:46;12.60;99.90
3053;DHT22;1536;51.098;6.414;2023-04-24T12:17:13;12.70;99.90
3053;DHT22;1536;51.098;6.414;2023-04-24T12:19:45;12.70;99.90
3053;DHT22;1536;51.098;6.414;2023-04-24T12:22:12;12.80;99.90
3053;DHT22;1536;51.098;6.414;2023-04-24T12:24:59;12.90;99.90
3053;DHT22;1536;51.098;6.414;2023-04-24T12:27:26;13.00;99.90
3053;DHT22;1536;51.098;6.414;2023-04-24T12:29:55;13.20;99.90
3053;DHT22;1536;51.098;6.414;2023-04-24T12:32:22;13.40;99.90
3053;DHT22;1536;51.098;6.414;2023-04-24T12:34:49;13.40;99.90
3053;DHT22;1536;51.098;6.414;2023-04-24T12:37:16;13.50;99.90
3053;DHT22;1536;51.098;6.414;2023-04-24T12:39:58;13.50;99.90
3053;DHT22;1536;51.098;6.414;2023-04-24T12:42:26;13.50;99.90
3053;DHT22;1536;51.098;6.414;2023-04-24T12:44:56;13.40;99.90
3053;DHT22;1536;51.098;6.414;2023-04-24T12:47:24;13.40;99.90
3053;DHT22;1536;51.098;6.414;2023-04-24T12:49:50;13.40;99.90
3053;DHT22;1536;51.098;6.414;2023-04-24T12:52:17;13.40;99.90
3053;DHT22;1536;51.098;6.414;2023-04-24T12:54:45;13.30;99.90
3053;DHT22;1536;51.098;6.414;2023-04-24T12:57:13;13.40;99.90
3053;DHT22;1536;51.098;6.414;2023-04-24T12:59:40;13.60;99.90
3053;DHT22;1536;51.098;6.414;2023-04-24T13:02:07;13.90;99.90
3053;DHT22;1536;51.098;6.414;2023-04-24T13:04:34;13.90;99.90
3053;DHT22;1536;51.098;6.414;2023-04-24T13:07:01;14.10;99.90
3053;DHT22;1536;51.098;6.414;2023-04-24T13:09:28;14.10;99.90
3053;DHT22;1536;51.098;6.414;2023-04-24T13:11:55;14.20;99.90
3053;DHT22;1536;51.098;6.414;2023-04-24T13:14:23;14.20;99.90
3053;DHT22;1536;51.098;6.414;2023-04-24T13:16:49;14.10;99.90
3053;DHT22;1536;51.098;6.414;2023-04-24T13:19:17;14.10;99.90
3053;DHT22;1536;51.098;6.414;2023-04-24T13:21:44;14.10;99.90
3053;DHT22;1536;51.098;6.414;2023-04-24T13:24:11;14.00;99.90
3053;DHT22;1536;51.098;6.414;2023-04-24T13:26:38;14.10;99.90
3053;DHT22;1536;51.098;6.414;2023-04-24T13:29:05;14.00;99.90
3053;DHT22;1536;51.098;6.414;2023-04-24T13:31:32;14.00;99.90
3053;DHT22;1536;51.098;6.414;2023-04-24T13:44:06;13.90;99.90
3053;DHT22;1536;51.098;6.414;2023-04-24T13:46:34;13.90;99.90
3053;DHT22;1536;51.098;6.414;2023-04-24T13:49:02;14.00;99.90
3053;DHT22;1536;51.098;6.414;2023-04-24T13:51:29;14.00;99.90
3053;DHT22;1536;51.098;6.414;2023-04-24T13:53:56;14.00;99.90
3053;DHT22;1536;51.098;6.414;2023-04-24T13:56:23;14.00;99.90
3053;DHT22;1536;51.098;6.414;2023-04-24T13:58:49;13.90;99.90
3053;DHT22;1536;51.098;6.414;2023-04-24T14:01:16;13.80;99.90
3053;DHT22;1536;51.098;6.414;2023-04-24T14:03:44;13.80;99.90
3053;DHT22;1536;51.098;6.414;2023-04-24T14:06:11;13.70;99.90
3053;DHT22;1536;51.098;6.414;2023-04-24T14:08:37;13.70;99.90
3053;DHT22;1536;51.098;6.414;2023-04-24T14:11:04;13.80;99.90
3053;DHT22;1536;51.098;6.414;2023-04-24T14:13:31;13.80;99.90
3053;DHT22;1536;51.098;6.414;2023-04-24T14:15:58;13.80;99.90
3053;DHT22;1536;51.098;6.414;2023-04-24T14:18:25;13.90;99.90
3053;DHT22;1536;51.098;6.414;2023-04-24T14:20:53;13.90;99.90
3053;DHT22;1536;51.098;6.414;2023-04-24T14:23:20;14.00;99.90
3053;DHT22;1536;51.098;6.414;2023-04-24T14:25:47;14.00;99.90
3053;DHT22;1536;51.098;6.414;2023-04-24T14:28:16;14.00;99.90
3053;DHT22;1536;51.098;6.414;2023-04-24T14:30:43;14.10;99.90
3053;DHT22;1536;51.098;6.414;2023-04-24T14:33:09;14.10;99.90
3053;DHT22;1536;51.098;6.414;2023-04-24T14:35:37;14.20;99.90
3053;DHT22;1536;51.098;6.414;2023-04-24T14:38:05;14.30;99.90
3053;DHT22;1536;51.098;6.414;2023-04-24T14:40:32;14.40;99.90
3053;DHT22;1536;51.098;6.414;2023-04-24T14:42:59;14.40;99.90
3053;DHT22;1536;51.098;6.414;2023-04-24T14:45:26;14.50;99.90
3053;DHT22;1536;51.098;6.414;2023-04-24T14:47:53;14.50;99.90
3053;DHT22;1536;51.098;6.414;2023-04-24T14:50:20;14.70;99.90
3053;DHT22;1536;51.098;6.414;2023-04-24T14:52:47;14.90;99.90
3053;DHT22;1536;51.098;6.414;2023-04-24T14:55:15;15.00;99.90
3053;DHT22;1536;51.098;6.414;2023-04-24T14:57:42;15.00;99.90
3053;DHT22;1536;51.098;6.414;2023-04-24T15:00:09;15.00;99.90
3053;DHT22;1536;51.098;6.414;2023-04-24T15:02:36;15.00;99.90
3053;DHT22;1536;51.098;6.414;2023-04-24T15:05:07;15.00;99.90
3053;DHT22;1536;51.098;6.414;2023-04-24T15:07:34;15.10;99.90
3053;DHT22;1536;51.098;6.414;2023-04-24T15:10:02;15.10;99.90
3053;DHT22;1536;51.098;6.414;2023-04-24T15:12:30;15.10;99.90
3053;DHT22;1536;51.098;6.414;2023-04-24T15:14:57;15.10;99.90
3053;DHT22;1536;51.098;6.414;2023-04-24T15:17:24;15.10;99.90
3053;DHT22;1536;51.098;6.414;2023-04-24T15:19:50;15.10;99.90
3053;DHT22;1536;51.098;6.414;2023-04-24T15:22:17;15.10;99.90
3053;DHT22;1536;51.098;6.414;2023-04-24T15:24:44;15.20;99.90
3053;DHT22;1536;51.098;6.414;2023-04-24T15:27:10;15.30;99.90
3053;DHT22;1536;51.098;6.414;2023-04-24T15:29:38;15.30;99.90
3053;DHT22;1536;51.098;6.414;2023-04-24T15:32:05;15.30;99.90
3053;DHT22;1536;51.098;6.414;2023-04-24T15:34:32;15.20;99.90
3053;DHT22;1536;51.098;6.414;2023-04-24T15:36:59;15.00;99.90
3053;DHT22;1536;51.098;6.414;2023-04-24T15:39:26;14.90;99.90
3053;DHT22;1536;51.098;6.414;2023-04-24T15:41:53;14.80;99.90
3053;DHT22;1536;51.098;6.414;2023-04-24T15:44:21;14.60;99.90
3053;DHT22;1536;51.098;6.414;2023-04-24T15:46:49;14.50;99.90
3053;DHT22;1536;51.098;6.414;2023-04-24T15:49:16;14.40;99.90
3053;DHT22;1536;51.098;6.414;2023-04-24T15:51:43;14.40;99.90
3053;DHT22;1536;51.098;6.414;2023-04-24T15:54:10;14.40;99.90
3053;DHT22;1536;51.098;6.414;2023-04-24T15:56:36;14.40;99.90
3053;DHT22;1536;51.098;6.414;2023-04-24T15:59:03;14.40;99.90
3053;DHT22;1536;51.098;6.414;2023-04-24T16:01:30;14.40;99.90
3053;DHT22;1536;51.098;6.414;2023-04-24T16:03:59;14.50;99.90
3053;DHT22;1536;51.098;6.414;2023-04-24T16:06:26;14.50;99.90
3053;DHT22;1536;51.098;6.414;2023-04-24T16:08:53;14.50;99.90
3053;DHT22;1536;51.098;6.414;2023-04-24T16:11:20;14.50;99.90
3053;DHT22;1536;51.098;6.414;2023-04-24T16:13:46;14.40;99.90
3053;DHT22;1536;51.098;6.414;2023-04-24T16:16:13;14.40;99.90
3053;DHT22;1536;51.098;6.414;2023-04-24T16:18:40;14.30;99.90
3053;DHT22;1536;51.098;6.414;2023-04-24T16:21:08;14.30;99.90
3053;DHT22;1536;51.098;6.414;2023-04-24T16:23:35;14.30;99.90
3053;DHT22;1536;51.098;6.414;2023-04-24T16:26:01;14.20;99.90
3053;DHT22;1536;51.098;6.414;2023-04-24T16:28:29;14.20;99.90
3053;DHT22;1536;51.098;6.414;2023-04-24T16:30:55;14.20;99.90
3053;DHT22;1536;51.098;6.414;2023-04-24T16:33:22;14.20;99.90
3053;DHT22;1536;51.098;6.414;2023-04-24T16:35:50;14.10;99.90
3053;DHT22;1536;51.098;6.414;2023-04-24T16:38:18;14.10;99.90
3053;DHT22;1536;51.098;6.414;2023-04-24T16:40:45;14.00;99.90
3053;DHT22;1536;51.098;6.414;2023-04-24T16:43:12;13.90;99.90
3053;DHT22;1536;51.098;6.414;2023-04-24T16:45:38;13.80;99.90
3053;DHT22;1536;51.098;6.414;2023-04-24T16:48:05;13.80;99.90
3053;DHT22;1536;51.098;6.414;2023-04-24T16:50:32;13.80;99.90
3053;DHT22;1536;51.098;6.414;2023-04-24T16:52:58;13.70;99.90
3053;DHT22;1536;51.098;6.414;2023-04-24T16:55:27;13.60;99.90
3053;DHT22;1536;51.098;6.414;2023-04-24T16:57:53;13.60;99.90
3053;DHT22;1536;51.098;6.414;2023-04-24T17:00:20;13.50;99.90
3053;DHT22;1536;51.098;6.414;2023-04-24T17:02:47;13.40;99.90
3053;DHT22;1536;51.098;6.414;2023-04-24T17:05:14;13.40;99.90
3053;DHT22;1536;51.098;6.414;2023-04-24T17:07:43;13.30;99.90
3053;DHT22;1536;51.098;6.414;2023-04-24T17:10:10;13.30;99.90
3053;DHT22;1536;51.098;6.414;2023-04-24T17:12:38;13.20;99.90
3053;DHT22;1536;51.098;6.414;2023-04-24T17:15:06;13.20;99.90
3053;DHT22;1536;51.098;6.414;2023-04-24T17:17:32;13.10;99.90
3053;DHT22;1536;51.098;6.414;2023-04-24T17:19:59;13.10;99.90
3053;DHT22;1536;51.098;6.414;2023-04-24T17:22:26;13.00;99.90
3053;DHT22;1536;51.098;6.414;2023-04-24T17:24:53;12.90;99.90
3053;DHT22;1536;51.098;6.414;2023-04-24T17:27:19;12.90;99.90
3053;DHT22;1536;51.098;6.414;2023-04-24T17:29:47;12.80;99.90